createdAt,value
2023-04-27T00:02:00.809Z,99.90
2023-04-27T00:04:28.267Z,99.90
2023-04-27T00:06:55.672Z,99.90
2023-04-27T00:09:22.931Z,99.90
2023-04-27T00:11:50.161Z,99.90
2023-04-27T00:14:17.387Z,99.90
2023-04-27T00:16:44.778Z,99.90
2023-04-27T00:19:13.878Z,99.90
2023-04-27T00:21:41.799Z,99.90
2023-04-27T00:24:09.065Z,99.90
2023-04-27T00:26:36.325Z,99.90
2023-04-27T00:29:03.611Z,99.90
2023-04-27T00:31:30.835Z,99.90
2023-04-27T00:33:58.121Z,99.90
2023-04-27T00:36:25.422Z,99.90
2023-04-27T00:38:53.485Z,99.90
2023-04-27T00:41:20.890Z,99.90
2023-04-27T00:43:48.284Z,99.90
2023-04-27T00:46:17.281Z,99.90
2023-04-27T00:48:44.758Z,99.90
2023-04-27T00:51:12.214Z,99.90
2023-04-27T00:53:39.678Z,99.90
2023-04-27T00:56:07.798Z,99.90
2023-04-27T00:58:35.182Z,99.90
2023-04-27T01:01:03.684Z,99.90
2023-04-27T01:03:31.485Z,99.90
2023-04-27T01:06:01.515Z,99.90
2023-04-27T01:08:29.949Z,99.90
2023-04-27T01:10:57.375Z,99.90
2023-04-27T01:13:24.783Z,99.90
2023-04-27T01:15:52.047Z,99.90
2023-04-27T01:18:19.460Z,99.90
2023-04-27T01:20:46.824Z,99.90
2023-04-27T01:23:17.635Z,99.90
2023-04-27T01:25:45.223Z,99.90
2023-04-27T01:28:12.589Z,99.90
2023-04-27T01:30:39.786Z,99.90
2023-04-27T01:33:07.072Z,99.90
2023-04-27T01:35:34.329Z,99.90
2023-04-27T01:38:02.591Z,99.90
2023-04-27T01:40:29.842Z,99.90
2023-04-27T01:42:57.063Z,99.90
2023-04-27T01:45:24.384Z,99.90
2023-04-27T01:47:52.757Z,99.90
2023-04-27T01:50:21.345Z,99.90
2023-04-27T01:52:48.690Z,99.90
2023-04-27T01:55:16.001Z,99.90
2023-04-27T01:57:43.457Z,99.90
2023-04-27T02:00:11.343Z,99.90
2023-04-27T02:02:53.526Z,99.90
2023-04-27T02:05:24.135Z,99.90
2023-04-27T02:07:53.287Z,99.90
2023-04-27T02:10:23.051Z,99.90
2023-04-27T02:12:50.300Z,99.90
2023-04-27T02:15:17.876Z,99.90
2023-04-27T02:17:45.467Z,99.90
2023-04-27T02:20:13.383Z,99.90
2023-04-27T02:22:44.679Z,99.90
2023-04-27T02:25:12.924Z,99.90
2023-04-27T02:27:41.264Z,99.90
2023-04-27T02:30:10.854Z,99.90
2023-04-27T02:32:38.892Z,99.90
2023-04-27T02:35:06.866Z,99.90
2023-04-27T02:37:34.655Z,99.90
2023-04-27T02:40:04.101Z,99.90
2023-04-27T02:42:33.014Z,99.90
2023-04-27T02:45:00.308Z,99.90
2023-04-27T02:47:27.499Z,99.90
2023-04-27T02:49:54.715Z,99.90
2023-04-27T02:52:21.952Z,99.90
2023-04-27T02:54:49.173Z,99.90
2023-04-27T02:57:16.422Z,99.90
2023-04-27T02:59:43.647Z,99.90
2023-04-27T03:02:11.001Z,99.90
2023-04-27T03:04:38.816Z,99.90
2023-04-27T03:07:06.419Z,99.90
2023-04-27T03:09:33.696Z,99.90
2023-04-27T03:12:01.264Z,99.90
2023-04-27T03:14:28.544Z,99.90
2023-04-27T03:16:57.362Z,99.90
2023-04-27T03:19:24.627Z,99.90
2023-04-27T03:21:51.839Z,99.90
2023-04-27T03:24:19.044Z,99.90
2023-04-27T03:26:46.252Z,99.90
2023-04-27T03:29:13.835Z,99.90
2023-04-27T03:31:41.267Z,99.90
2023-04-27T03:34:08.538Z,99.90
2023-04-27T03:36:35.919Z,99.90
2023-04-27T03:39:03.138Z,99.90
2023-04-27T03:41:30.477Z,99.90
2023-04-27T03:43:57.820Z,99.90
2023-04-27T03:46:25.103Z,99.90
2023-04-27T03:48:52.670Z,99.90
2023-04-27T03:51:20.312Z,99.90
2023-04-27T03:53:47.596Z,99.90
2023-04-27T03:56:14.975Z,99.90
2023-04-27T03:58:42.241Z,99.90
2023-04-27T04:01:14.755Z,99.90
2023-04-27T04:03:42.466Z,99.90
2023-04-27T04:06:09.978Z,99.90
2023-04-27T04:08:37.656Z,99.90
2023-04-27T04:11:04.998Z,99.90
2023-04-27T04:13:32.258Z,99.90
2023-04-27T04:16:07.999Z,99.90
2023-04-27T04:18:36.926Z,99.90
2023-04-27T04:21:05.464Z,99.90
2023-04-27T04:23:32.958Z,99.90
2023-04-27T04:26:02.067Z,99.90
2023-04-27T04:28:33.286Z,99.90
2023-04-27T04:31:05.595Z,99.90
2023-04-27T04:33:33.552Z,99.90
2023-04-27T04:36:05.097Z,99.90
2023-04-27T04:38:34.085Z,99.90
2023-04-27T04:41:01.451Z,99.90
2023-04-27T04:43:32.012Z,99.90
2023-04-27T04:46:03.853Z,99.90
2023-04-27T04:48:31.122Z,99.90
2023-04-27T04:50:58.405Z,99.90
2023-04-27T04:53:26.135Z,99.90
2023-04-27T04:55:55.903Z,99.90
2023-04-27T04:58:23.143Z,99.90
2023-04-27T05:00:50.513Z,99.90
2023-04-27T05:03:17.872Z,99.90
2023-04-27T05:05:45.355Z,99.90
2023-04-27T05:08:13.244Z,99.90
2023-04-27T05:10:40.614Z,99.90
2023-04-27T05:13:07.878Z,99.90
2023-04-27T05:15:37.565Z,99.90
2023-04-27T05:18:04.848Z,99.90
2023-04-27T05:20:35.723Z,99.90
2023-04-27T05:23:03.231Z,99.90
2023-04-27T05:25:34.729Z,99.90
2023-04-27T05:28:01.981Z,99.90
2023-04-27T05:30:29.185Z,99.90
2023-04-27T05:32:56.392Z,99.90
2023-04-27T05:35:23.728Z,99.90
2023-04-27T05:37:51.050Z,99.90
2023-04-27T05:40:18.372Z,99.90
2023-04-27T05:42:48.523Z,99.90
2023-04-27T05:45:15.950Z,99.90
2023-04-27T05:47:43.294Z,99.90
2023-04-27T05:50:11.162Z,99.90
2023-04-27T05:52:39.074Z,99.90
2023-04-27T05:55:07.983Z,99.90
2023-04-27T05:57:35.273Z,99.90
2023-04-27T06:00:08.383Z,99.90
2023-04-27T06:02:39.584Z,99.90
2023-04-27T06:05:07.322Z,99.90
2023-04-27T06:07:34.561Z,99.90
2023-04-27T06:10:01.766Z,99.90
2023-04-27T06:12:29.012Z,99.90
2023-04-27T06:14:56.232Z,99.90
2023-04-27T06:17:23.478Z,99.90
2023-04-27T06:19:51.546Z,99.90
2023-04-27T06:22:18.761Z,99.90
2023-04-27T06:24:47.233Z,99.90
2023-04-27T06:27:14.653Z,99.90
2023-04-27T06:29:41.997Z,99.90
2023-04-27T06:32:09.304Z,99.90
2023-04-27T06:34:36.770Z,99.90
2023-04-27T06:37:03.950Z,99.90
2023-04-27T06:39:32.038Z,99.90
2023-04-27T06:41:59.280Z,99.60
2023-04-27T06:44:26.832Z,99.30
2023-04-27T06:46:54.185Z,98.80
2023-04-27T06:49:21.474Z,98.50
2023-04-27T06:51:49.358Z,97.60
2023-04-27T06:54:16.762Z,97.20
2023-04-27T06:56:44.748Z,96.40
2023-04-27T06:59:12.269Z,95.80
2023-04-27T07:01:40.129Z,95.20
2023-04-27T07:04:07.474Z,94.40
2023-04-27T07:06:34.716Z,94.00
2023-04-27T07:09:02.541Z,94.40
2023-04-27T07:11:31.859Z,93.50
2023-04-27T07:13:59.068Z,91.80
2023-04-27T07:16:26.857Z,91.00
2023-04-27T07:18:54.209Z,90.10
2023-04-27T07:21:21.568Z,88.40
2023-04-27T07:23:48.771Z,87.40
2023-04-27T07:26:16.029Z,88.70
2023-04-27T07:28:44.132Z,90.40
2023-04-27T07:31:11.498Z,91.50
2023-04-27T07:33:38.849Z,92.40
2023-04-27T07:36:07.281Z,91.40
2023-04-27T07:38:34.734Z,90.50
2023-04-27T07:41:05.769Z,90.90
2023-04-27T07:43:33.289Z,91.20
2023-04-27T07:46:00.744Z,92.00
2023-04-27T07:48:31.206Z,91.30
2023-04-27T07:50:58.485Z,91.90
2023-04-27T07:53:25.718Z,90.20
2023-04-27T07:55:52.918Z,86.50
2023-04-27T07:58:20.264Z,83.50
2023-04-27T08:00:47.578Z,80.60
2023-04-27T08:03:14.963Z,80.50
2023-04-27T08:05:42.602Z,79.40
2023-04-27T08:08:09.990Z,77.00
2023-04-27T08:10:38.137Z,78.30
2023-04-27T08:13:06.136Z,77.50
2023-04-27T08:15:33.343Z,75.10
2023-04-27T08:18:00.700Z,76.40
2023-04-27T08:20:28.065Z,77.60
2023-04-27T08:22:55.529Z,75.80
2023-04-27T08:25:22.713Z,76.00
2023-04-27T08:27:49.957Z,76.40
2023-04-27T08:30:17.660Z,76.40
2023-04-27T08:32:44.906Z,76.70
2023-04-27T08:35:13.499Z,75.40
2023-04-27T08:37:40.920Z,74.80
2023-04-27T08:40:10.066Z,75.30
2023-04-27T08:42:37.820Z,74.20
2023-04-27T08:45:12.248Z,75.80
2023-04-27T08:47:43.753Z,75.00
2023-04-27T08:50:16.277Z,73.40
2023-04-27T08:52:51.382Z,73.00
2023-04-27T08:55:24.470Z,72.00
2023-04-27T08:57:58.222Z,72.00
2023-04-27T09:00:46.645Z,71.10
2023-04-27T09:03:27.620Z,70.40
2023-04-27T09:06:04.507Z,73.00
2023-04-27T09:08:49.843Z,72.10
2023-04-27T09:11:29.765Z,69.00
2023-04-27T09:13:58.783Z,69.60
2023-04-27T09:16:29.169Z,70.40
2023-04-27T09:18:58.427Z,71.60
2023-04-27T09:21:38.177Z,71.10
2023-04-27T09:24:13.323Z,69.40
2023-04-27T09:26:42.936Z,72.00
2023-04-27T09:29:10.296Z,72.90
2023-04-27T09:31:37.598Z,74.10
2023-04-27T09:34:04.937Z,73.60
2023-04-27T09:36:32.855Z,71.10
2023-04-27T09:39:04.676Z,70.30
2023-04-27T09:41:33.315Z,70.60
2023-04-27T09:44:01.982Z,72.40
2023-04-27T09:46:30.696Z,72.10
2023-04-27T09:48:58.222Z,72.20
2023-04-27T09:51:26.053Z,71.10
2023-04-27T09:53:58.569Z,71.90
2023-04-27T09:57:04.844Z,75.10
2023-04-27T09:59:49.424Z,76.20
2023-04-27T10:05:12.977Z,75.50
2023-04-27T10:07:41.580Z,75.80
2023-04-27T10:10:20.316Z,76.30
2023-04-27T10:13:01.768Z,78.70
2023-04-27T10:15:30.413Z,78.00
2023-04-27T10:18:04.528Z,78.30
2023-04-27T10:20:36.966Z,79.50
2023-04-27T10:23:04.775Z,79.50
2023-04-27T10:25:40.860Z,81.40
2023-04-27T10:28:09.119Z,80.00
2023-04-27T10:30:46.222Z,80.60
2023-04-27T10:33:17.582Z,80.80
2023-04-27T10:35:55.129Z,81.00
2023-04-27T10:38:28.412Z,79.80
2023-04-27T10:40:58.103Z,80.90
2023-04-27T10:43:27.796Z,78.40
2023-04-27T10:45:55.851Z,76.20
2023-04-27T10:48:23.134Z,76.90
2023-04-27T10:50:53.169Z,76.50
2023-04-27T10:53:20.534Z,77.40
2023-04-27T10:55:47.855Z,76.00
2023-04-27T10:58:15.292Z,75.60
2023-04-27T11:00:44.191Z,75.80
2023-04-27T11:03:19.464Z,76.40
2023-04-27T11:05:49.484Z,76.30
2023-04-27T11:08:18.776Z,75.60
2023-04-27T11:10:49.884Z,75.40
2023-04-27T11:13:22.450Z,73.40
2023-04-27T11:15:54.854Z,73.20
2023-04-27T11:18:27.734Z,74.60
2023-04-27T11:21:07.341Z,73.80
2023-04-27T11:23:38.527Z,73.60
2023-04-27T11:26:11.019Z,74.00
2023-04-27T11:28:39.122Z,74.90
2023-04-27T11:31:06.819Z,75.70
2023-04-27T11:33:35.831Z,76.20
2023-04-27T11:36:03.485Z,77.10
2023-04-27T11:38:34.247Z,75.80
2023-04-27T11:41:04.830Z,75.70
2023-04-27T11:43:32.987Z,75.60
2023-04-27T11:46:08.126Z,75.90
2023-04-27T11:48:37.599Z,76.50
2023-04-27T11:51:06.096Z,76.70
2023-04-27T11:53:36.946Z,76.90
2023-04-27T11:56:07.741Z,79.30
2023-04-27T11:58:39.681Z,78.40
2023-04-27T12:01:07.708Z,78.40
2023-04-27T12:03:35.722Z,77.60
2023-04-27T12:06:16.601Z,78.30
2023-04-27T12:08:51.123Z,78.80
2023-04-27T12:11:18.833Z,78.10
2023-04-27T12:13:47.178Z,78.60
2023-04-27T12:16:14.582Z,78.10
2023-04-27T12:18:42.058Z,79.00
2023-04-27T12:21:10.315Z,79.30
2023-04-27T12:23:37.555Z,79.20
2023-04-27T12:26:05.108Z,79.80
2023-04-27T12:28:32.431Z,79.70
2023-04-27T12:31:03.932Z,79.30
2023-04-27T12:33:31.930Z,79.60
2023-04-27T12:35:59.248Z,80.40
2023-04-27T12:38:27.029Z,81.60
2023-04-27T12:40:54.284Z,82.70
2023-04-27T12:43:21.570Z,82.60
2023-04-27T12:45:48.930Z,82.00
2023-04-27T12:48:17.704Z,82.70
2023-04-27T12:50:45.141Z,81.50
2023-04-27T12:53:12.459Z,81.70
2023-04-27T12:55:39.847Z,81.60
2023-04-27T12:58:08.178Z,83.00
2023-04-27T13:00:35.817Z,82.60
2023-04-27T13:03:03.694Z,80.90
2023-04-27T13:05:32.313Z,82.30
2023-04-27T13:07:59.811Z,82.60
2023-04-27T13:10:28.740Z,82.90
2023-04-27T13:12:56.090Z,83.20
2023-04-27T13:15:23.324Z,83.10
2023-04-27T13:17:53.042Z,83.90
2023-04-27T13:20:21.098Z,83.50
2023-04-27T13:22:48.415Z,82.90
2023-04-27T13:25:16.767Z,82.80
2023-04-27T13:27:44.001Z,82.50
2023-04-27T13:30:11.662Z,83.80
2023-04-27T13:32:38.996Z,84.00
2023-04-27T13:35:07.722Z,84.10
2023-04-27T13:37:35.094Z,84.10
2023-04-27T13:40:02.366Z,83.00
2023-04-27T13:42:29.737Z,83.80
2023-04-27T13:44:57.097Z,82.90
2023-04-27T13:47:24.405Z,83.90
2023-04-27T13:49:51.639Z,83.60
2023-04-27T13:52:18.858Z,83.80
2023-04-27T13:54:46.023Z,85.00
2023-04-27T13:57:13.232Z,84.40
2023-04-27T13:59:40.458Z,84.50
2023-04-27T14:02:08.353Z,84.90
2023-04-27T14:04:35.692Z,85.00
2023-04-27T14:07:03.005Z,85.10
2023-04-27T14:09:30.403Z,84.30
2023-04-27T14:11:57.732Z,85.00
2023-04-27T14:14:25.041Z,83.90
2023-04-27T14:16:56.790Z,83.60
2023-04-27T14:19:24.153Z,83.50
2023-04-27T14:21:51.401Z,83.30
2023-04-27T14:24:18.730Z,84.00
2023-04-27T14:26:47.514Z,83.70
2023-04-27T14:29:15.100Z,83.50
2023-04-27T14:31:42.718Z,83.80
2023-04-27T14:34:10.830Z,84.80
2023-04-27T14:36:38.074Z,83.80
2023-04-27T14:39:06.685Z,84.80
2023-04-27T14:41:35.509Z,84.20
2023-04-27T14:44:04.484Z,86.00
2023-04-27T14:46:31.841Z,87.20
2023-04-27T14:48:59.260Z,87.60
2023-04-27T14:51:26.645Z,87.70
2023-04-27T14:53:53.973Z,87.20
2023-04-27T14:56:23.070Z,85.50
2023-04-27T14:58:50.383Z,85.90
2023-04-27T15:01:18.268Z,86.20
2023-04-27T15:03:45.961Z,86.20
2023-04-27T15:06:13.812Z,87.70
2023-04-27T15:08:41.035Z,87.10
2023-04-27T15:11:08.329Z,86.40
2023-04-27T15:13:35.590Z,87.90
2023-04-27T15:16:04.858Z,88.10
2023-04-27T15:18:32.473Z,88.90
2023-04-27T15:21:00.128Z,88.80
2023-04-27T15:23:27.803Z,87.90
2023-04-27T15:25:56.587Z,87.40
2023-04-27T15:28:24.097Z,87.50
2023-04-27T15:30:51.545Z,87.70
2023-04-27T15:33:19.129Z,87.50
2023-04-27T15:35:46.570Z,87.40
2023-04-27T15:38:15.086Z,88.80
2023-04-27T15:40:42.444Z,89.40
2023-04-27T15:43:09.708Z,89.40
2023-04-27T15:45:37.299Z,88.30
2023-04-27T15:48:04.768Z,89.20
2023-04-27T15:50:32.045Z,88.50
2023-04-27T15:52:59.277Z,87.40
2023-04-27T15:55:26.620Z,88.50
2023-04-27T15:57:54.116Z,88.50
2023-04-27T16:00:22.493Z,88.60
2023-04-27T16:02:50.281Z,88.80
2023-04-27T16:05:17.862Z,89.20
2023-04-27T16:07:45.775Z,88.50
2023-04-27T16:10:13.458Z,88.90
2023-04-27T16:12:41.009Z,88.60
2023-04-27T16:15:10.923Z,87.90
2023-04-27T16:17:39.261Z,87.60
2023-04-27T16:20:07.609Z,89.30
2023-04-27T16:22:36.369Z,89.80
2023-04-27T16:25:06.575Z,89.60
2023-04-27T16:27:34.316Z,90.00
2023-04-27T16:30:01.679Z,90.20
2023-04-27T16:32:29.008Z,90.50
2023-04-27T16:34:56.342Z,90.60
2023-04-27T16:37:23.705Z,90.80
2023-04-27T16:39:51.254Z,90.80
2023-04-27T16:42:20.599Z,90.50
2023-04-27T16:44:48.097Z,90.90
2023-04-27T16:47:15.380Z,91.30
2023-04-27T16:49:44.208Z,91.70
2023-04-27T16:52:12.122Z,92.00
2023-04-27T16:54:39.341Z,92.10
2023-04-27T16:57:07.741Z,91.80
2023-04-27T16:59:34.998Z,91.50
2023-04-27T17:02:12.856Z,91.80
2023-04-27T17:04:48.660Z,91.90
2023-04-27T17:07:15.794Z,92.20
2023-04-27T17:09:43.057Z,92.40
2023-04-27T17:12:14.861Z,92.50
2023-04-27T17:14:42.577Z,92.80
2023-04-27T17:17:11.088Z,92.70
2023-04-27T17:19:39.076Z,92.50
2023-04-27T17:22:08.393Z,92.80
2023-04-27T17:24:35.635Z,92.90
2023-04-27T17:27:04.267Z,93.20
2023-04-27T17:29:31.914Z,93.30
2023-04-27T17:31:59.217Z,93.40
2023-04-27T17:34:26.433Z,93.80
2023-04-27T17:36:53.695Z,94.20
2023-04-27T17:39:22.669Z,94.50
2023-04-27T17:41:49.924Z,94.50
2023-04-27T17:44:17.353Z,94.60
2023-04-27T17:46:49.252Z,94.90
2023-04-27T17:49:17.680Z,94.90
2023-04-27T17:51:45.627Z,94.90
2023-04-27T17:54:13.057Z,95.00
2023-04-27T17:56:40.423Z,94.70
2023-04-27T17:59:08.862Z,94.10
2023-04-27T18:01:36.522Z,94.30
2023-04-27T18:04:06.499Z,93.90
2023-04-27T18:06:34.039Z,93.20
2023-04-27T18:09:01.589Z,92.80
2023-04-27T18:11:29.177Z,92.70
2023-04-27T18:13:58.060Z,92.60
2023-04-27T18:16:25.708Z,92.50
2023-04-27T18:18:53.083Z,92.60
2023-04-27T18:21:20.402Z,92.90
2023-04-27T18:23:47.780Z,93.10
2023-04-27T18:26:15.013Z,93.30
2023-04-27T18:28:42.252Z,93.40
2023-04-27T18:31:16.138Z,93.50
2023-04-27T18:33:44.282Z,93.50
2023-04-27T18:36:11.705Z,93.60
2023-04-27T18:38:38.979Z,93.90
2023-04-27T18:41:06.793Z,94.00
2023-04-27T18:43:37.137Z,94.10
2023-04-27T18:46:04.894Z,94.20
2023-04-27T18:48:32.423Z,94.40
2023-04-27T18:50:59.787Z,94.80
2023-04-27T18:53:27.874Z,94.60
2023-04-27T18:55:55.594Z,94.60
2023-04-27T18:58:23.109Z,94.60
2023-04-27T19:00:50.498Z,94.80
2023-04-27T19:03:17.959Z,94.70
2023-04-27T19:05:45.430Z,94.70
2023-04-27T19:08:12.806Z,94.60
2023-04-27T19:10:42.814Z,94.80
2023-04-27T19:13:10.111Z,95.00
2023-04-27T19:15:37.429Z,95.10
2023-04-27T19:18:10.650Z,95.20
2023-04-27T19:20:39.248Z,95.30
2023-04-27T19:23:07.954Z,95.00
2023-04-27T19:25:35.684Z,95.00
2023-04-27T19:28:02.950Z,94.80
2023-04-27T19:30:30.346Z,94.70
2023-04-27T19:32:57.572Z,94.70
2023-04-27T19:35:26.380Z,94.60
2023-04-27T19:37:53.585Z,94.70
2023-04-27T19:40:21.387Z,94.60
2023-04-27T19:42:48.667Z,94.70
2023-04-27T19:45:17.888Z,94.70
2023-04-27T19:47:45.983Z,94.80
2023-04-27T19:50:13.421Z,94.70
2023-04-27T19:52:40.829Z,94.60
2023-04-27T19:55:08.358Z,94.60
2023-04-27T19:57:36.373Z,94.50
2023-04-27T20:00:06.830Z,94.50
2023-04-27T20:02:40.447Z,94.40
2023-04-27T20:05:08.674Z,94.40
2023-04-27T20:07:37.378Z,94.50
2023-04-27T20:10:05.513Z,94.50
2023-04-27T20:12:51.583Z,94.30
2023-04-27T20:15:20.214Z,94.00
2023-04-27T20:17:47.788Z,93.90
2023-04-27T20:20:15.076Z,94.10
2023-04-27T20:22:42.696Z,94.00
2023-04-27T20:25:10.017Z,94.00
2023-04-27T20:27:37.241Z,93.70
2023-04-27T20:30:05.003Z,93.90
2023-04-27T20:32:32.262Z,94.60
2023-04-27T20:35:01.404Z,95.20
2023-04-27T20:37:29.375Z,95.40
2023-04-27T20:39:56.746Z,95.60
2023-04-27T20:42:24.486Z,95.70
2023-04-27T20:44:54.647Z,96.00
2023-04-27T20:47:22.451Z,96.00
2023-04-27T20:49:53.453Z,96.20
2023-04-27T20:52:21.311Z,96.10
2023-04-27T20:54:49.411Z,96.20
2023-04-27T20:57:17.680Z,95.80
2023-04-27T20:59:45.835Z,96.10
2023-04-27T21:02:13.795Z,96.10
2023-04-27T21:04:42.271Z,96.40
2023-04-27T21:07:10.548Z,96.40
2023-04-27T21:09:39.082Z,96.10
2023-04-27T21:12:07.301Z,95.40
2023-04-27T21:14:35.348Z,95.60
2023-04-27T21:17:03.753Z,95.80
2023-04-27T21:19:31.723Z,96.10
2023-04-27T21:21:59.154Z,96.10
2023-04-27T21:24:26.933Z,96.10
2023-04-27T21:26:54.892Z,96.00
2023-04-27T21:29:22.517Z,95.90
2023-04-27T21:31:51.002Z,96.00
2023-04-27T21:34:18.879Z,96.00
2023-04-27T21:36:49.399Z,96.10
2023-04-27T21:39:16.712Z,96.20
2023-04-27T21:41:44.493Z,96.20
2023-04-27T21:44:16.027Z,96.20
2023-04-27T21:46:44.397Z,96.50
2023-04-27T21:49:12.292Z,96.30
2023-04-27T21:51:39.774Z,96.30
2023-04-27T21:54:07.235Z,96.00
2023-04-27T21:56:35.546Z,96.10
2023-04-27T21:59:04.203Z,96.00
2023-04-27T22:01:32.298Z,95.80
2023-04-27T22:04:06.394Z,95.50
2023-04-27T22:06:34.466Z,95.40
2023-04-27T22:09:06.595Z,95.20
2023-04-27T22:11:35.553Z,95.30
2023-04-27T22:14:03.579Z,95.30
2023-04-27T22:16:35.187Z,95.30
2023-04-27T22:19:05.310Z,95.00
2023-04-27T22:21:33.355Z,94.70
2023-04-27T22:24:01.314Z,94.90
2023-04-27T22:26:32.216Z,94.80
2023-04-27T22:29:00.136Z,94.20
2023-04-27T22:31:28.672Z,94.50
2023-04-27T22:33:58.097Z,94.80
2023-04-27T22:36:28.862Z,93.80
2023-04-27T22:39:02.252Z,93.90
2023-04-27T22:41:32.533Z,93.90
2023-04-27T22:44:01.502Z,93.60
2023-04-27T22:46:32.820Z,93.70
2023-04-27T22:49:01.871Z,94.20
2023-04-27T22:51:30.039Z,93.20
2023-04-27T22:53:58.335Z,93.30
2023-04-27T22:56:26.552Z,93.50
2023-04-27T22:58:57.458Z,93.70
2023-04-27T23:01:24.858Z,94.20
2023-04-27T23:03:53.543Z,94.40
2023-04-27T23:06:21.162Z,94.70
2023-04-27T23:08:48.385Z,95.20
2023-04-27T23:11:18.875Z,94.90
2023-04-27T23:13:48.060Z,95.10
2023-04-27T23:16:15.628Z,95.20
2023-04-27T23:18:42.884Z,95.30
2023-04-27T23:21:11.770Z,95.50
2023-04-27T23:23:39.046Z,95.70
2023-04-27T23:26:16.343Z,95.80
2023-04-27T23:28:43.741Z,96.00
2023-04-27T23:31:11.265Z,96.00
2023-04-27T23:33:38.501Z,95.80
2023-04-27T23:36:06.320Z,95.40
2023-04-27T23:38:33.588Z,95.70
2023-04-27T23:41:00.970Z,95.90
2023-04-27T23:43:28.361Z,96.00
2023-04-27T23:45:55.805Z,95.80
2023-04-27T23:48:23.135Z,96.10
2023-04-27T23:51:01.649Z,96.20
2023-04-27T23:53:29.435Z,96.50
2023-04-27T23:55:57.043Z,96.80
2023-04-27T23:58:25.967Z,96.80
